sensor_id;sensor_type;location;lat;lon;timestamp;pressure;altitude;pressure_sealevel;temperature;humidity
50867;BME280;36839;51.946;21.002;2022-11-18T00:02:27;99096.48;;;-2.92;100.00
50867;BME280;36839;51.946;21.002;2022-11-18T00:04:55;99089.30;;;-2.82;100.00
50867;BME280;36839;51.946;21.002;2022-11-18T00:07:23;99092.83;;;-2.81;100.00
50867;BME280;36839;51.946;21.002;2022-11-18T00:09:58;99082.23;;;-2.83;100.00
50867;BME280;36839;51.946;21.002;2022-11-18T00:12:27;99082.23;;;-2.83;100.00
50867;BME280;36839;51.946;21.002;2022-11-18T00:15:14;99090.36;;;-2.61;100.00
50867;BME280;36839;51.946;21.002;2022-11-18T00:17:41;99092.85;;;-2.59;100.00
50867;BME280;36839;51.946;21.002;2022-11-18T00:20:09;99092.85;;;-2.59;100.00
50867;BME280;36839;51.946;21.002;2022-11-18T00:22:37;99073.00;;;-2.55;100.00
50867;BME280;36839;51.946;21.002;2022-11-18T00:25:04;99092.30;;;-2.45;100.00
50867;BME280;36839;51.946;21.002;2022-11-18T00:27:31;99089.55;;;-2.39;99.90
50867;BME280;36839;51.946;21.002;2022-11-18T00:29:59;99089.55;;;-2.39;99.90
50867;BME280;36839;51.946;21.002;2022-11-18T00:32:26;99088.04;;;-2.28;99.26
50867;BME280;36839;51.946;21.002;2022-11-18T00:34:55;99077.42;;;-2.23;99.10
50867;BME280;36839;51.946;21.002;2022-11-18T00:37:21;99077.42;;;-2.23;99.10
50867;BME280;36839;51.946;21.002;2022-11-18T00:39:47;99086.14;;;-2.21;98.96
50867;BME280;36839;51.946;21.002;2022-11-18T00:42:19;99088.52;;;-2.15;98.91
50867;BME280;36839;51.946;21.002;2022-11-18T00:45:06;99083.80;;;-2.11;99.22
50867;BME280;36839;51.946;21.002;2022-11-18T00:47:33;99083.47;;;-2.05;99.09
50867;BME280;36839;51.946;21.002;2022-11-18T00:50:01;99091.97;;;-2.02;98.75
50867;BME280;36839;51.946;21.002;2022-11-18T00:52:29;99091.97;;;-2.02;98.75
50867;BME280;36839;51.946;21.002;2022-11-18T00:54:56;99084.88;;;-1.96;97.76
50867;BME280;36839;51.946;21.002;2022-11-18T00:57:26;99082.58;;;-1.99;97.57
50867;BME280;36839;51.946;21.002;2022-11-18T00:59:53;99076.34;;;-1.99;97.66
50867;BME280;36839;51.946;21.002;2022-11-18T01:02:22;99069.05;;;-1.99;97.61
50867;BME280;36839;51.946;21.002;2022-11-18T01:04:48;99069.05;;;-1.99;97.61
50867;BME280;36839;51.946;21.002;2022-11-18T01:07:16;99069.39;;;-1.98;96.53
50867;BME280;36839;51.946;21.002;2022-11-18T01:09:42;99059.12;;;-2.05;95.70
50867;BME280;36839;51.946;21.002;2022-11-18T01:12:11;99062.34;;;-2.06;95.67
50867;BME280;36839;51.946;21.002;2022-11-18T01:14:57;99064.31;;;-2.04;96.02
50867;BME280;36839;51.946;21.002;2022-11-18T01:17:32;99060.85;;;-2.02;96.24
50867;BME280;36839;51.946;21.002;2022-11-18T01:20:02;99068.34;;;-1.97;96.49
50867;BME280;36839;51.946;21.002;2022-11-18T01:22:31;99065.19;;;-1.94;96.16
50867;BME280;36839;51.946;21.002;2022-11-18T01:24:59;99068.91;;;-1.88;96.22
50867;BME280;36839;51.946;21.002;2022-11-18T01:27:27;99071.17;;;-1.85;95.93
50867;BME280;36839;51.946;21.002;2022-11-18T01:29:55;99069.29;;;-1.85;95.30
50867;BME280;36839;51.946;21.002;2022-11-18T01:32:23;99054.85;;;-1.88;95.43
50867;BME280;36839;51.946;21.002;2022-11-18T01:34:53;99057.41;;;-1.84;95.61
50867;BME280;36839;51.946;21.002;2022-11-18T01:37:20;99057.41;;;-1.84;95.61
50867;BME280;36839;51.946;21.002;2022-11-18T01:39:47;99060.88;;;-1.86;95.36
50867;BME280;36839;51.946;21.002;2022-11-18T01:42:16;99052.00;;;-1.84;94.33
50867;BME280;36839;51.946;21.002;2022-11-18T01:45:09;99044.41;;;-1.84;94.56
50867;BME280;36839;51.946;21.002;2022-11-18T01:47:42;99052.48;;;-1.78;93.88
50867;BME280;36839;51.946;21.002;2022-11-18T01:50:07;99058.95;;;-1.79;93.08
50867;BME280;36839;51.946;21.002;2022-11-18T01:52:37;99060.50;;;-1.80;93.06
50867;BME280;36839;51.946;21.002;2022-11-18T01:55:12;99047.19;;;-1.82;93.49
50867;BME280;36839;51.946;21.002;2022-11-18T01:57:47;99047.19;;;-1.82;93.49
50867;BME280;36839;51.946;21.002;2022-11-18T02:00:15;99038.73;;;-1.76;94.02
50867;BME280;36839;51.946;21.002;2022-11-18T02:02:42;99039.41;;;-1.72;93.54
50867;BME280;36839;51.946;21.002;2022-11-18T02:05:10;99038.58;;;-1.72;93.23
50867;BME280;36839;51.946;21.002;2022-11-18T02:07:39;99038.58;;;-1.72;93.23
50867;BME280;36839;51.946;21.002;2022-11-18T02:10:21;99029.91;;;-1.81;92.80
50867;BME280;36839;51.946;21.002;2022-11-18T02:12:49;99029.91;;;-1.81;92.80
50867;BME280;36839;51.946;21.002;2022-11-18T02:15:21;99034.86;;;-1.87;93.67
50867;BME280;36839;51.946;21.002;2022-11-18T02:17:56;99034.86;;;-1.87;93.67
50867;BME280;36839;51.946;21.002;2022-11-18T02:20:27;99036.47;;;-1.95;93.36
50867;BME280;36839;51.946;21.002;2022-11-18T02:23:17;99046.50;;;-2.02;93.76
50867;BME280;36839;51.946;21.002;2022-11-18T02:34:27;99039.94;;;-2.19;96.53
50867;BME280;36839;51.946;21.002;2022-11-18T02:37:01;99030.53;;;-2.26;95.68
50867;BME280;36839;51.946;21.002;2022-11-18T02:39:35;99026.78;;;-2.25;94.63
50867;BME280;36839;51.946;21.002;2022-11-18T02:42:05;99029.78;;;-2.24;95.01
50867;BME280;36839;51.946;21.002;2022-11-18T02:44:36;99021.84;;;-2.19;95.52
50867;BME280;36839;51.946;21.002;2022-11-18T02:47:05;99021.84;;;-2.19;95.52
50867;BME280;36839;51.946;21.002;2022-11-18T02:49:37;99020.15;;;-2.13;95.02
50867;BME280;36839;51.946;21.002;2022-11-18T02:52:09;99013.88;;;-2.07;94.98
50867;BME280;36839;51.946;21.002;2022-11-18T02:54:39;99013.95;;;-2.05;94.99
50867;BME280;36839;51.946;21.002;2022-11-18T02:57:07;99020.20;;;-2.04;94.96
50867;BME280;36839;51.946;21.002;2022-11-18T02:59:37;99011.25;;;-2.05;94.88
50867;BME280;36839;51.946;21.002;2022-11-18T03:02:04;99016.96;;;-2.04;95.00
50867;BME280;36839;51.946;21.002;2022-11-18T03:04:31;99019.75;;;-2.01;94.81
50867;BME280;36839;51.946;21.002;2022-11-18T03:07:12;99019.86;;;-1.98;94.76
50867;BME280;36839;51.946;21.002;2022-11-18T03:09:45;99015.66;;;-1.94;94.91
50867;BME280;36839;51.946;21.002;2022-11-18T03:12:40;99015.66;;;-1.94;94.91
50867;BME280;36839;51.946;21.002;2022-11-18T03:18:27;99003.52;;;-2.01;95.18
50867;BME280;36839;51.946;21.002;2022-11-18T03:21:22;99007.76;;;-1.96;95.46
50867;BME280;36839;51.946;21.002;2022-11-18T03:23:31;99010.39;;;-1.98;95.17
50867;BME280;36839;51.946;21.002;2022-11-18T03:26:01;99011.78;;;-2.05;94.79
50867;BME280;36839;51.946;21.002;2022-11-18T03:28:43;99007.75;;;-2.12;94.87
50867;BME280;36839;51.946;21.002;2022-11-18T03:31:18;99007.75;;;-2.12;94.87
50867;BME280;36839;51.946;21.002;2022-11-18T03:33:46;98999.56;;;-2.14;96.02
50867;BME280;36839;51.946;21.002;2022-11-18T03:36:14;98992.34;;;-2.11;96.15
50867;BME280;36839;51.946;21.002;2022-11-18T03:38:46;98994.83;;;-2.10;95.83
50867;BME280;36839;51.946;21.002;2022-11-18T03:41:15;98993.41;;;-2.12;95.11
50867;BME280;36839;51.946;21.002;2022-11-18T03:43:53;98993.41;;;-2.12;95.11
50867;BME280;36839;51.946;21.002;2022-11-18T03:46:30;98988.81;;;-2.12;95.79
50867;BME280;36839;51.946;21.002;2022-11-18T03:48:55;98993.09;;;-2.13;96.43
50867;BME280;36839;51.946;21.002;2022-11-18T03:51:35;98993.09;;;-2.13;96.39
50867;BME280;36839;51.946;21.002;2022-11-18T03:54:09;98993.09;;;-2.13;96.39
50867;BME280;36839;51.946;21.002;2022-11-18T03:56:37;98989.56;;;-2.14;96.21
50867;BME280;36839;51.946;21.002;2022-11-18T03:59:21;98993.32;;;-2.15;96.54
50867;BME280;36839;51.946;21.002;2022-11-18T04:01:52;98983.78;;;-2.17;96.81
50867;BME280;36839;51.946;21.002;2022-11-18T04:04:20;98993.92;;;-2.13;96.33
50867;BME280;36839;51.946;21.002;2022-11-18T04:06:51;98997.54;;;-2.10;96.67
50867;BME280;36839;51.946;21.002;2022-11-18T04:09:25;98997.54;;;-2.10;96.67
50867;BME280;36839;51.946;21.002;2022-11-18T04:11:59;99000.43;;;-2.05;96.80
50867;BME280;36839;51.946;21.002;2022-11-18T04:14:38;98985.77;;;-2.06;96.59
50867;BME280;36839;51.946;21.002;2022-11-18T04:17:14;98992.77;;;-2.08;97.54
50867;BME280;36839;51.946;21.002;2022-11-18T04:19:41;98986.41;;;-2.11;97.94
50867;BME280;36839;51.946;21.002;2022-11-18T04:22:09;98993.63;;;-2.14;97.91
50867;BME280;36839;51.946;21.002;2022-11-18T04:24:35;98993.63;;;-2.14;97.91
50867;BME280;36839;51.946;21.002;2022-11-18T04:27:03;98980.44;;;-2.19;98.70
50867;BME280;36839;51.946;21.002;2022-11-18T04:29:30;98984.72;;;-2.21;98.78
50867;BME280;36839;51.946;21.002;2022-11-18T04:31:58;98986.30;;;-2.22;98.89
50867;BME280;36839;51.946;21.002;2022-11-18T04:34:26;98986.30;;;-2.22;98.89
50867;BME280;36839;51.946;21.002;2022-11-18T04:36:56;98983.28;;;-2.23;99.46
50867;BME280;36839;51.946;21.002;2022-11-18T04:39:26;98981.19;;;-2.21;99.46
50867;BME280;36839;51.946;21.002;2022-11-18T04:41:54;98981.19;;;-2.21;99.46
50867;BME280;36839;51.946;21.002;2022-11-18T04:44:28;98990.54;;;-2.17;98.91
50867;BME280;36839;51.946;21.002;2022-11-18T04:46:59;98994.23;;;-2.12;98.75
50867;BME280;36839;51.946;21.002;2022-11-18T04:49:26;98994.23;;;-2.12;98.75
50867;BME280;36839;51.946;21.002;2022-11-18T04:51:53;98986.91;;;-2.05;98.28
50867;BME280;36839;51.946;21.002;2022-11-18T04:54:21;98987.73;;;-2.04;97.69
50867;BME280;36839;51.946;21.002;2022-11-18T04:56:48;98976.72;;;-2.09;97.32
50867;BME280;36839;51.946;21.002;2022-11-18T04:59:20;98978.34;;;-2.02;97.64
50867;BME280;36839;51.946;21.002;2022-11-18T05:01:49;98978.48;;;-2.06;97.22
50867;BME280;36839;51.946;21.002;2022-11-18T05:04:22;98977.77;;;-2.10;97.77
50867;BME280;36839;51.946;21.002;2022-11-18T05:06:51;98973.26;;;-2.16;98.11
50867;BME280;36839;51.946;21.002;2022-11-18T05:09:19;98970.86;;;-2.15;99.15
50867;BME280;36839;51.946;21.002;2022-11-18T05:11:45;98971.91;;;-2.16;99.71
50867;BME280;36839;51.946;21.002;2022-11-18T05:14:31;98967.44;;;-2.20;99.62
50867;BME280;36839;51.946;21.002;2022-11-18T05:17:01;98967.73;;;-2.19;100.00
50867;BME280;36839;51.946;21.002;2022-11-18T05:19:31;98970.97;;;-2.19;100.00
50867;BME280;36839;51.946;21.002;2022-11-18T05:22:01;98960.38;;;-2.21;100.00
50867;BME280;36839;51.946;21.002;2022-11-18T05:24:33;98972.33;;;-2.19;100.00
50867;BME280;36839;51.946;21.002;2022-11-18T05:26:59;98965.86;;;-2.18;100.00
50867;BME280;36839;51.946;21.002;2022-11-18T05:29:27;98971.27;;;-2.18;100.00
50867;BME280;36839;51.946;21.002;2022-11-18T05:31:58;98971.27;;;-2.18;100.00
50867;BME280;36839;51.946;21.002;2022-11-18T05:34:26;98963.75;;;-2.25;100.00
50867;BME280;36839;51.946;21.002;2022-11-18T05:36:57;98958.87;;;-2.26;100.00
50867;BME280;36839;51.946;21.002;2022-11-18T05:39:25;98951.76;;;-2.36;100.00
50867;BME280;36839;51.946;21.002;2022-11-18T05:41:54;98958.98;;;-2.30;100.00
50867;BME280;36839;51.946;21.002;2022-11-18T05:44:39;98958.98;;;-2.30;100.00
50867;BME280;36839;51.946;21.002;2022-11-18T05:47:09;98961.30;;;-2.34;100.00
50867;BME280;36839;51.946;21.002;2022-11-18T05:49:36;98968.81;;;-2.36;100.00
50867;BME280;36839;51.946;21.002;2022-11-18T05:52:04;98968.70;;;-2.38;100.00
50867;BME280;36839;51.946;21.002;2022-11-18T05:54:33;98967.30;;;-2.47;100.00
50867;BME280;36839;51.946;21.002;2022-11-18T05:57:03;98969.70;;;-2.48;100.00
50867;BME280;36839;51.946;21.002;2022-11-18T05:59:29;98957.67;;;-2.52;100.00
50867;BME280;36839;51.946;21.002;2022-11-18T06:02:01;98957.67;;;-2.52;100.00
50867;BME280;36839;51.946;21.002;2022-11-18T06:04:32;98972.77;;;-2.54;100.00
50867;BME280;36839;51.946;21.002;2022-11-18T06:07:05;98966.72;;;-2.56;100.00
50867;BME280;36839;51.946;21.002;2022-11-18T06:09:34;98966.64;;;-2.59;100.00
50867;BME280;36839;51.946;21.002;2022-11-18T06:12:03;98965.89;;;-2.56;100.00
50867;BME280;36839;51.946;21.002;2022-11-18T06:14:39;98976.70;;;-2.56;100.00
50867;BME280;36839;51.946;21.002;2022-11-18T06:17:10;98970.78;;;-2.56;100.00
50867;BME280;36839;51.946;21.002;2022-11-18T06:19:38;98972.46;;;-2.55;100.00
50867;BME280;36839;51.946;21.002;2022-11-18T06:22:08;98981.92;;;-2.55;100.00
50867;BME280;36839;51.946;21.002;2022-11-18T06:24:38;98981.92;;;-2.55;100.00
50867;BME280;36839;51.946;21.002;2022-11-18T06:27:06;98985.86;;;-2.57;100.00
50867;BME280;36839;51.946;21.002;2022-11-18T06:29:33;98986.30;;;-2.61;100.00
50867;BME280;36839;51.946;21.002;2022-11-18T06:32:00;98990.75;;;-2.57;100.00
50867;BME280;36839;51.946;21.002;2022-11-18T06:34:30;98990.75;;;-2.57;100.00
50867;BME280;36839;51.946;21.002;2022-11-18T06:36:57;98992.86;;;-2.66;100.00
50867;BME280;36839;51.946;21.002;2022-11-18T06:39:27;98993.22;;;-2.71;100.00
50867;BME280;36839;51.946;21.002;2022-11-18T06:41:54;98993.22;;;-2.71;100.00
50867;BME280;36839;51.946;21.002;2022-11-18T06:44:23;98989.47;;;-2.70;100.00
50867;BME280;36839;51.946;21.002;2022-11-18T06:46:51;98995.48;;;-2.68;100.00
50867;BME280;36839;51.946;21.002;2022-11-18T06:49:26;99000.26;;;-2.64;100.00
50867;BME280;36839;51.946;21.002;2022-11-18T06:51:51;99000.26;;;-2.64;100.00
50867;BME280;36839;51.946;21.002;2022-11-18T06:54:21;98993.84;;;-2.76;100.00
50867;BME280;36839;51.946;21.002;2022-11-18T06:56:50;99005.48;;;-2.75;100.00
50867;BME280;36839;51.946;21.002;2022-11-18T06:59:18;98998.54;;;-2.74;100.00
50867;BME280;36839;51.946;21.002;2022-11-18T07:01:47;98997.51;;;-2.79;100.00
50867;BME280;36839;51.946;21.002;2022-11-18T07:04:14;99008.30;;;-2.73;100.00
50867;BME280;36839;51.946;21.002;2022-11-18T07:06:42;99013.05;;;-2.68;100.00
50867;BME280;36839;51.946;21.002;2022-11-18T07:09:10;99011.70;;;-2.68;100.00
50867;BME280;36839;51.946;21.002;2022-11-18T07:11:39;99011.70;;;-2.68;100.00
50867;BME280;36839;51.946;21.002;2022-11-18T07:14:07;99030.31;;;-2.69;100.00
50867;BME280;36839;51.946;21.002;2022-11-18T07:16:37;99024.08;;;-2.70;100.00
50867;BME280;36839;51.946;21.002;2022-11-18T07:19:09;99024.08;;;-2.70;100.00
50867;BME280;36839;51.946;21.002;2022-11-18T07:21:39;99032.10;;;-2.72;100.00
50867;BME280;36839;51.946;21.002;2022-11-18T07:24:07;99037.89;;;-2.69;100.00
50867;BME280;36839;51.946;21.002;2022-11-18T07:26:41;99035.09;;;-2.65;100.00
50867;BME280;36839;51.946;21.002;2022-11-18T07:29:09;99039.23;;;-2.62;100.00
50867;BME280;36839;51.946;21.002;2022-11-18T07:31:36;99039.23;;;-2.62;100.00
50867;BME280;36839;51.946;21.002;2022-11-18T07:34:07;99038.42;;;-2.69;100.00
50867;BME280;36839;51.946;21.002;2022-11-18T07:36:37;99037.81;;;-2.71;100.00
50867;BME280;36839;51.946;21.002;2022-11-18T07:39:05;99037.81;;;-2.71;100.00
50867;BME280;36839;51.946;21.002;2022-11-18T07:41:33;99036.22;;;-2.63;100.00
50867;BME280;36839;51.946;21.002;2022-11-18T07:44:02;99029.34;;;-2.66;100.00
50867;BME280;36839;51.946;21.002;2022-11-18T07:46:36;99032.95;;;-2.56;100.00
50867;BME280;36839;51.946;21.002;2022-11-18T08:21:35;99063.93;;;-2.52;100.00
50867;BME280;36839;51.946;21.002;2022-11-18T08:24:03;99063.48;;;-2.49;100.00
50867;BME280;36839;51.946;21.002;2022-11-18T08:26:34;99066.80;;;-2.47;100.00
50867;BME280;36839;51.946;21.002;2022-11-18T08:29:01;99057.17;;;-2.52;100.00
50867;BME280;36839;51.946;21.002;2022-11-18T08:31:28;99062.75;;;-2.47;100.00
50867;BME280;36839;51.946;21.002;2022-11-18T08:34:03;99058.76;;;-2.38;100.00
50867;BME280;36839;51.946;21.002;2022-11-18T08:36:32;99058.98;;;-2.39;100.00
50867;BME280;36839;51.946;21.002;2022-11-18T08:39:00;99060.46;;;-2.43;100.00
50867;BME280;36839;51.946;21.002;2022-11-18T08:41:34;99060.46;;;-2.43;100.00
50867;BME280;36839;51.946;21.002;2022-11-18T08:44:02;99063.19;;;-2.50;100.00
50867;BME280;36839;51.946;21.002;2022-11-18T08:46:31;99057.09;;;-2.54;100.00
50867;BME280;36839;51.946;21.002;2022-11-18T08:49:20;99060.18;;;-2.51;100.00
50867;BME280;36839;51.946;21.002;2022-11-18T08:51:48;99058.96;;;-2.55;100.00
50867;BME280;36839;51.946;21.002;2022-11-18T08:54:15;99059.35;;;-2.51;100.00
50867;BME280;36839;51.946;21.002;2022-11-18T08:56:45;99061.31;;;-2.49;100.00
50867;BME280;36839;51.946;21.002;2022-11-18T08:59:14;99066.72;;;-2.49;100.00
50867;BME280;36839;51.946;21.002;2022-11-18T09:01:42;99062.05;;;-2.51;100.00
50867;BME280;36839;51.946;21.002;2022-11-18T09:04:11;99062.05;;;-2.51;100.00
50867;BME280;36839;51.946;21.002;2022-11-18T09:06:40;99064.31;;;-2.48;100.00
50867;BME280;36839;51.946;21.002;2022-11-18T09:09:06;99064.31;;;-2.48;100.00
50867;BME280;36839;51.946;21.002;2022-11-18T09:11:36;99062.97;;;-2.48;100.00
50867;BME280;36839;51.946;21.002;2022-11-18T09:14:05;99070.03;;;-2.47;100.00
50867;BME280;36839;51.946;21.002;2022-11-18T09:16:34;99070.03;;;-2.47;100.00
50867;BME280;36839;51.946;21.002;2022-11-18T09:19:02;99065.52;;;-2.38;100.00
50867;BME280;36839;51.946;21.002;2022-11-18T09:21:30;99063.40;;;-2.29;100.00
50867;BME280;36839;51.946;21.002;2022-11-18T09:23:58;99063.40;;;-2.29;100.00
50867;BME280;36839;51.946;21.002;2022-11-18T09:26:26;99062.77;;;-2.24;100.00
50867;BME280;36839;51.946;21.002;2022-11-18T09:28:56;99057.83;;;-2.18;100.00
50867;BME280;36839;51.946;21.002;2022-11-18T09:31:26;99057.83;;;-2.18;100.00
50867;BME280;36839;51.946;21.002;2022-11-18T09:33:52;99057.52;;;-2.19;100.00
50867;BME280;36839;51.946;21.002;2022-11-18T09:36:23;99053.30;;;-2.09;100.00
50867;BME280;36839;51.946;21.002;2022-11-18T09:38:50;99048.83;;;-2.06;100.00
50867;BME280;36839;51.946;21.002;2022-11-18T09:41:22;99051.45;;;-2.08;100.00
50867;BME280;36839;51.946;21.002;2022-11-18T09:44:08;99047.17;;;-2.07;100.00
50867;BME280;36839;51.946;21.002;2022-11-18T09:49:21;99042.74;;;-2.01;100.00
50867;BME280;36839;51.946;21.002;2022-11-18T09:51:49;99042.34;;;-1.73;100.00
50867;BME280;36839;51.946;21.002;2022-11-18T09:54:25;99036.81;;;-1.69;100.00
50867;BME280;36839;51.946;21.002;2022-11-18T09:56:54;99036.81;;;-1.69;100.00
50867;BME280;36839;51.946;21.002;2022-11-18T09:59:24;99044.03;;;-1.63;100.00
50867;BME280;36839;51.946;21.002;2022-11-18T10:01:57;99048.92;;;-1.62;100.00
50867;BME280;36839;51.946;21.002;2022-11-18T10:04:26;99048.92;;;-1.62;100.00
50867;BME280;36839;51.946;21.002;2022-11-18T10:06:55;99033.61;;;-1.59;100.00
50867;BME280;36839;51.946;21.002;2022-11-18T10:09:29;99034.81;;;-1.55;100.00
50867;BME280;36839;51.946;21.002;2022-11-18T10:14:51;99047.50;;;-1.40;100.00
50867;BME280;36839;51.946;21.002;2022-11-18T10:22:57;99036.73;;;-1.62;97.28
50867;BME280;36839;51.946;21.002;2022-11-18T10:25:22;99042.16;;;-1.62;96.98
50867;BME280;36839;51.946;21.002;2022-11-18T10:27:52;99042.16;;;-1.62;96.98
50867;BME280;36839;51.946;21.002;2022-11-18T10:30:21;99045.38;;;-1.63;96.27
50867;BME280;36839;51.946;21.002;2022-11-18T10:33:03;99053.51;;;-1.63;96.57
50867;BME280;36839;51.946;21.002;2022-11-18T10:35:35;99060.50;;;-1.64;96.55
50867;BME280;36839;51.946;21.002;2022-11-18T10:40:59;99067.88;;;-1.62;96.14
50867;BME280;36839;51.946;21.002;2022-11-18T10:43:44;99069.63;;;-1.59;96.92
50867;BME280;36839;51.946;21.002;2022-11-18T10:46:35;99067.38;;;-1.53;97.51
50867;BME280;36839;51.946;21.002;2022-11-18T10:51:43;99077.19;;;-1.67;98.32
50867;BME280;36839;51.946;21.002;2022-11-18T10:54:18;99074.34;;;-1.63;98.99
50867;BME280;36839;51.946;21.002;2022-11-18T10:57:04;99077.41;;;-1.69;98.76
50867;BME280;36839;51.946;21.002;2022-11-18T11:02:31;99080.34;;;-1.86;98.81
50867;BME280;36839;51.946;21.002;2022-11-18T11:05:03;99082.07;;;-1.83;99.71
50867;BME280;36839;51.946;21.002;2022-11-18T11:07:34;99082.07;;;-1.83;99.71
50867;BME280;36839;51.946;21.002;2022-11-18T11:12:46;99084.14;;;-1.78;99.49
50867;BME280;36839;51.946;21.002;2022-11-18T11:15:26;99091.84;;;-1.82;98.65
50867;BME280;36839;51.946;21.002;2022-11-18T11:18:03;99089.06;;;-1.84;98.51
50867;BME280;36839;51.946;21.002;2022-11-18T11:20:52;99089.06;;;-1.84;98.51
50867;BME280;36839;51.946;21.002;2022-11-18T11:23:24;99093.50;;;-1.81;99.13
50867;BME280;36839;51.946;21.002;2022-11-18T11:25:58;99092.38;;;-1.82;98.70
50867;BME280;36839;51.946;21.002;2022-11-18T11:31:27;99091.91;;;-1.88;98.16
50867;BME280;36839;51.946;21.002;2022-11-18T11:36:50;99085.26;;;-1.92;98.37
50867;BME280;36839;51.946;21.002;2022-11-18T11:45:18;99081.39;;;-1.87;97.44
50867;BME280;36839;51.946;21.002;2022-11-18T11:51:06;99089.44;;;-1.81;97.28
50867;BME280;36839;51.946;21.002;2022-11-18T11:53:51;99096.66;;;-1.68;98.00
50867;BME280;36839;51.946;21.002;2022-11-18T11:56:23;99091.78;;;-1.68;95.84
50867;BME280;36839;51.946;21.002;2022-11-18T11:58:58;99091.78;;;-1.68;95.84
50867;BME280;36839;51.946;21.002;2022-11-18T12:01:26;99087.79;;;-1.82;95.78
50867;BME280;36839;51.946;21.002;2022-11-18T12:04:03;99092.48;;;-1.80;96.74
50867;BME280;36839;51.946;21.002;2022-11-18T12:06:30;99099.11;;;-1.76;95.14
50867;BME280;36839;51.946;21.002;2022-11-18T12:11:32;99098.28;;;-1.60;95.25
50867;BME280;36839;51.946;21.002;2022-11-18T12:14:10;99101.19;;;-1.62;92.79
50867;BME280;36839;51.946;21.002;2022-11-18T12:16:44;99099.11;;;-1.60;92.14
50867;BME280;36839;51.946;21.002;2022-11-18T12:19:17;99099.41;;;-1.59;91.66
50867;BME280;36839;51.946;21.002;2022-11-18T12:26:49;99102.94;;;-1.74;90.79
50867;BME280;36839;51.946;21.002;2022-11-18T12:31:57;99115.88;;;-1.76;90.22
50867;BME280;36839;51.946;21.002;2022-11-18T12:34:38;99110.57;;;-1.80;90.22
50867;BME280;36839;51.946;21.002;2022-11-18T12:42:45;99109.48;;;-1.73;89.76
50867;BME280;36839;51.946;21.002;2022-11-18T12:48:32;99110.42;;;-1.69;88.24
50867;BME280;36839;51.946;21.002;2022-11-18T12:53:45;99097.70;;;-1.85;86.16
50867;BME280;36839;51.946;21.002;2022-11-18T12:56:22;99107.03;;;-1.81;87.55
50867;BME280;36839;51.946;21.002;2022-11-18T12:58:54;99107.03;;;-1.81;87.55
50867;BME280;36839;51.946;21.002;2022-11-18T13:01:25;99108.20;;;-1.79;86.23
50867;BME280;36839;51.946;21.002;2022-11-18T13:04:15;99102.42;;;-1.74;86.35
50867;BME280;36839;51.946;21.002;2022-11-18T13:06:48;99105.42;;;-1.73;84.82
50867;BME280;36839;51.946;21.002;2022-11-18T13:09:19;99104.91;;;-1.72;84.83
50867;BME280;36839;51.946;21.002;2022-11-18T13:12:03;99100.42;;;-1.69;86.58
50867;BME280;36839;51.946;21.002;2022-11-18T13:14:41;99107.72;;;-1.69;86.24
50867;BME280;36839;51.946;21.002;2022-11-18T13:17:41;99105.09;;;-1.67;85.52
50867;BME280;36839;51.946;21.002;2022-11-18T13:22:57;99101.63;;;-1.81;85.46
50867;BME280;36839;51.946;21.002;2022-11-18T13:25:45;99101.09;;;-1.80;86.07
50867;BME280;36839;51.946;21.002;2022-11-18T13:28:37;99101.09;;;-1.80;86.07
50867;BME280;36839;51.946;21.002;2022-11-18T13:31:21;99096.32;;;-1.78;86.24
50867;BME280;36839;51.946;21.002;2022-11-18T13:33:51;99098.13;;;-1.72;86.07
50867;BME280;36839;51.946;21.002;2022-11-18T13:36:22;99099.75;;;-1.64;86.55
50867;BME280;36839;51.946;21.002;2022-11-18T13:39:04;99096.75;;;-1.65;86.02
50867;BME280;36839;51.946;21.002;2022-11-18T13:41:32;99099.48;;;-1.72;84.83
50867;BME280;36839;51.946;21.002;2022-11-18T13:44:17;99105.02;;;-1.69;84.85
50867;BME280;36839;51.946;21.002;2022-11-18T13:46:48;99105.02;;;-1.69;84.85
50867;BME280;36839;51.946;21.002;2022-11-18T13:49:18;99107.72;;;-1.69;84.93
50867;BME280;36839;51.946;21.002;2022-11-18T13:51:49;99103.73;;;-1.67;85.10
50867;BME280;36839;51.946;21.002;2022-11-18T13:54:24;99110.73;;;-1.68;85.78
50867;BME280;36839;51.946;21.002;2022-11-18T13:56:56;99108.32;;;-1.67;85.86
50867;BME280;36839;51.946;21.002;2022-11-18T13:59:32;99107.13;;;-1.62;87.19
50867;BME280;36839;51.946;21.002;2022-11-18T14:02:02;99107.13;;;-1.62;87.19
50867;BME280;36839;51.946;21.002;2022-11-18T14:04:29;99110.09;;;-1.55;86.38
50867;BME280;36839;51.946;21.002;2022-11-18T14:09:58;99115.17;;;-1.49;88.49
50867;BME280;36839;51.946;21.002;2022-11-18T14:12:30;99115.17;;;-1.49;88.49
50867;BME280;36839;51.946;21.002;2022-11-18T14:15:20;99125.52;;;-1.55;88.65
50867;BME280;36839;51.946;21.002;2022-11-18T14:17:50;99130.44;;;-1.61;88.40
50867;BME280;36839;51.946;21.002;2022-11-18T14:20:18;99129.42;;;-1.60;88.91
50867;BME280;36839;51.946;21.002;2022-11-18T14:22:46;99128.38;;;-1.59;89.39
50867;BME280;36839;51.946;21.002;2022-11-18T14:28:10;99138.97;;;-1.58;89.30
50867;BME280;36839;51.946;21.002;2022-11-18T14:30:41;99137.58;;;-1.67;89.08
50867;BME280;36839;51.946;21.002;2022-11-18T14:33:21;99143.62;;;-1.72;89.49
50867;BME280;36839;51.946;21.002;2022-11-18T14:38:40;99140.67;;;-1.79;88.97
50867;BME280;36839;51.946;21.002;2022-11-18T14:41:12;99140.67;;;-1.79;88.97
50867;BME280;36839;51.946;21.002;2022-11-18T14:43:39;99152.11;;;-1.77;89.59
50867;BME280;36839;51.946;21.002;2022-11-18T14:46:15;99147.63;;;-1.81;89.95
50867;BME280;36839;51.946;21.002;2022-11-18T14:48:41;99162.63;;;-1.78;91.15
50867;BME280;36839;51.946;21.002;2022-11-18T14:51:15;99155.45;;;-1.82;91.31
50867;BME280;36839;51.946;21.002;2022-11-18T14:53:45;99157.94;;;-1.80;91.20
50867;BME280;36839;51.946;21.002;2022-11-18T14:58:50;99164.75;;;-1.71;92.71
50867;BME280;36839;51.946;21.002;2022-11-18T15:01:19;99164.75;;;-1.71;92.71
50867;BME280;36839;51.946;21.002;2022-11-18T15:03:52;99166.05;;;-1.80;92.80
50867;BME280;36839;51.946;21.002;2022-11-18T15:06:20;99166.58;;;-1.81;93.51